Latest Coastal Weather Observations for Hobart Airport

IDT60701

Issued at 1:22 am EST Sunday 2 October 2016 (issued every 10 minutes, with the page automatically refreshed every 10 minutes)

About coastal observations | Map of coastal stations | Coastal observations for TAS | Marine services | Other Formats
Station Details ID: 094008 Name: HOBART AIRPORT Lat: -42.83 Lon: 147.50 Height: 4.0 m
Data from the previous 72 hours. | See also: Recent months at Hobart Airport
Date/Time
EST
Temp
°C
Wind Pressure Rain since
9am
mm
Weather Cloud Vis
km
Sea
Height
m
Swell
Dir  Spd
kts
Gust
kts
hPa Trend Height
m
Period
s
Dir
02/01:00am 12.5 NW 16 20 999.2 - - - Mostly clear 10 - - - -
02/12:30am 12.5 NW 19 23 998.9 - - - Mostly clear 10 - - - -
02/12:00am 12.2 NW 15 19 998.6 R - Fine Partly cloudy 40 - - - -
 
Date/Time
EST
Temp
°C
Wind Pressure Rain since
9am
mm
Weather Cloud Vis
km
Sea
Height
m
Swell
Dir  Spd
kts
Gust
kts
hPa Trend Height
m
Period
s
Dir
01/11:30pm 12.3 NW 13 16 998.1 - - - Mostly clear 10 - - - -
01/11:00pm 12.6 NW 14 17 998.0 - - - Mostly clear 10 - - - -
01/10:30pm 12.4 NNW 11 17 997.5 - - - Mostly clear 10 - - - -
01/10:00pm 12.4 NNW 10 13 997.6 - - - Mostly clear 10 - - - -
01/09:30pm 12.6 NW 14 18 997.3 - - - Mostly clear 10 - - - -
01/09:00pm 12.6 NW 12 16 997.1 R 1.0 Distant precip. Mostly cloudy 40 - - - -
01/08:30pm 12.1 NW 11 16 996.6 - - - Mostly clear 10 - - - -
01/08:00pm 12.1 NNW 9 13 996.2 - - - Mostly clear 10 - - - -
01/07:30pm 12.2 NNW 8 11 995.8 - - - Partly cloudy 10 - - - -
01/07:00pm 13.0 NW 11 15 995.2 - - - Mostly clear 10 - - - -
01/06:30pm 13.1 NNW 7 10 994.9 - - - Mostly clear 10 - - - -
01/06:00pm 13.3 NW 8 10 994.3 R - Distant precip. Mostly cloudy 40 - - - -
01/05:30pm 12.9 NNW 9 13 993.7 - - - Partly cloudy 10 - - - -
01/05:00pm 13.1 NW 13 16 993.0 - - - Partly cloudy 10 - - - -
01/04:30pm 12.9 WNW 15 31 992.6 - - Showers Partly cloudy 10 - - - -
01/04:21pm 14.1 NNW 15 26 992.2 - - Showers Partly cloudy 8 - - - -
01/04:00pm 16.1 NNW 11 16 991.8 - - - Partly cloudy 10 - - - -
01/03:30pm 17.0 NNW 11 19 991.4 - - - Partly cloudy 10 - - - -
01/03:00pm 16.3 NW 10 13 991.3 F 1.0 Distant precip. Partly cloudy 40 - - - -
01/02:30pm 16.8 NNW 8 12 991.5 - - - Partly cloudy 10 - - - -
01/02:00pm 15.5 N 5 - 991.5 - - - Mostly clear 10 - - - -
01/01:30pm 15.4 N 9 14 991.5 - 1.2 - Mostly clear 10 - - - -
01/01:00pm 14.4 N 10 16 991.8 - 1.2 - Mostly clear 10 - - - -
01/12:30pm 13.2 N 6 8 992.3 - 1.2 - Mostly clear 10 - - - -
01/12:00pm 11.5 NNW 5 7 992.6 F 1.2 Fine Mostly cloudy 40 - - - -
01/11:30am 11.1 NNW 4 4 992.8 - 1.2 - Mostly clear 10 - - - -
01/11:00am 10.4 NW 3 4 993.1 - 1.2 - Mostly clear 10 - - - -
01/10:30am 10.3 NW 4 5 993.5 - 0.8 Rain Mostly clear 10 - - - -
01/10:00am 10.1 NNW 3 4 993.7 - 0.8 - Mostly clear 10 - - - -
01/09:30am 9.7 NNW 4 5 993.9 - 0.4 Rain Mostly clear 10 - - - -
01/09:00am 9.8 N 5 7 994.1 R 2.8 Rain Mostly cloudy 15 - - - -
01/08:30am 9.5 CALM 0 0 994.2 - 2.4 Rain Mostly clear 10 - - - -
01/08:00am 9.3 CALM 0 0 994.2 - 1.6 - Mostly clear 10 - - - -
01/07:30am 9.2 N 4 5 994.1 - 1.0 Rain Mostly clear 10 - - - -
01/07:00am 9.6 NNW 2 5 994.0 - 0.2 - Mostly clear 10 - - - -
01/06:30am 8.9 CALM 0 0 993.8 - 0.2 Rain Mostly clear 10 - - - -
01/06:00am 7.3 CALM 0 4 993.6 R 0.2 Distant precip. Partly cloudy 40 - - - -
01/05:30am 6.2 SW 4 5 993.3 - 0.2 - Mostly clear 10 - - - -
01/05:00am 7.1 S 5 6 992.9 - 0.2 - Mostly clear 10 - - - -
01/04:30am 8.8 N 5 8 992.7 - 0.2 - - 10 - - - -
01/04:00am 8.4 NNW 8 10 992.5 - 0.2 - - 10 - - - -
01/03:30am 8.3 N 7 9 992.5 - 0.2 - - 10 - - - -
01/03:00am 8.6 NW 9 11 992.7 R 0.2 Fine Mostly clear 40 - - - -
01/02:30am 8.1 SW 3 5 993.1 - 0.2 - - 10 - - - -
01/02:00am 8.8 NW 5 7 993.2 - 0.2 - Mostly clear 10 - - - -
01/01:30am 8.9 N 10 15 993.0 - 0.2 - - 10 - - - -
01/01:00am 9.5 N 10 15 993.3 - 0.2 - - 10 - - - -
01/12:30am 9.8 NNE 14 21 993.1 - 0.2 - - 10 - - - -
01/12:00am 9.8 N 12 18 993.3 R 0.2 Fine Clear 40 - - - -
 
Date/Time
EST
Temp
°C
Wind Pressure Rain since
9am
mm
Weather Cloud Vis
km
Sea
Height
m
Swell
Dir  Spd
kts
Gust
kts
hPa Trend Height
m
Period
s
Dir
30/11:30pm 9.7 N 10 14 993.4 - 0.2 - - 10 - - - -
30/11:00pm 10.1 NNE 14 21 993.4 - 0.2 - - 10 - - - -
30/10:30pm 10.2 NNE 14 18 993.3 - 0.2 - Mostly clear 10 - - - -
30/10:00pm 10.3 N 13 18 993.5 - 0.2 - Mostly clear 10 - - - -
30/09:30pm 10.8 NNE 12 17 993.5 - 0.2 - - 10 - - - -
30/09:00pm 11.1 NNE 13 19 993.4 R 0.2 Fine Partly cloudy 40 - - - -
30/08:30pm 11.1 NNE 13 19 993.1 - 0.2 - - 10 - - - -
30/08:00pm 11.2 NNE 15 22 992.9 - 0.2 - Mostly clear 10 - - - -
30/07:30pm 11.4 NNE 15 21 992.6 - 0.2 - Mostly clear 10 - - - -
30/07:00pm 11.5 N 12 17 992.1 - 0.2 - Mostly clear 10 - - - -
30/06:30pm 11.9 NNE 16 27 991.3 - 0.2 - Mostly clear 10 - - - -
30/06:00pm 12.6 NNE 19 29 990.5 R 0.2 Fine Mostly clear 40 - - - -
30/05:42pm 13.3 NNE 16 26 990.1 - 0.2 - Mostly clear 10 - - - -
30/05:30pm 13.4 NNE 18 26 989.7 - 0.2 - Mostly clear 10 - - - -
30/05:00pm 13.9 NNE 16 22 989.1 - 0.2 - Mostly clear 10 - - - -
30/04:30pm 14.3 N 17 24 988.5 - 0.2 - Mostly clear 10 - - - -
30/04:00pm 14.3 N 15 20 988.1 - 0.2 - Mostly clear 10 - - - -
30/03:30pm 14.3 N 14 20 987.8 - 0.2 - Mostly clear 10 - - - -
30/03:00pm 14.9 N 14 20 987.5 R 0.2 Fine Partly cloudy 40 - - - -
30/02:30pm 13.7 N 13 19 987.5 - 0.2 - Mostly clear 10 - - - -
30/02:00pm 13.8 N 14 21 987.4 - 0.2 - Mostly clear 10 - - - -
30/01:30pm 13.1 NNW 8 15 987.2 - 0.2 - Mostly clear 10 - - - -
30/01:00pm 13.0 NE 12 16 987.0 - 0.2 - Mostly clear 10 - - - -
30/12:46pm 13.1 E 9 15 986.6 - 0.2 - Mostly clear 10 - - - -
30/12:30pm 13.1 SE 10 15 986.6 - 0.2 Showers Mostly clear 10 - - - -
30/12:00pm 13.8 SE 13 18 986.4 F 0.2 Distant precip. Cloudy 15 - - - -
30/11:30am 13.6 SE 16 24 986.5 - 0.2 - Mostly clear 10 - - - -
30/11:19am 13.6 SE 18 25 986.6 - 0.2 - Mostly clear 10 - - - -
30/11:00am 13.7 SE 16 22 987.4 - 0.2 - Mostly clear 10 - - - -
30/10:30am 13.9 SE 12 22 988.0 - 0.2 Rain Mostly clear 10 - - - -
30/10:00am 13.9 ESE 15 26 988.5 - 0.2 - Mostly clear 10 - - - -
30/09:30am 13.9 ESE 13 23 988.7 - 0.2 Rain Mostly clear 10 - - - -
30/09:11am 13.7 ESE 15 32 988.6 - 0.0 Rain Mostly clear 10 - - - -
30/09:00am 13.5 ESE 14 26 988.7 F 24.6 Rain Cloudy 7 - - - -
30/08:41am 13.3 ESE 15 27 988.8 - 24.4 Rain Mostly clear 7 - - - -
30/08:38am 13.3 ESE 14 27 988.6 - 24.4 Rain Mostly clear 6 - - - -
30/08:30am 13.2 ESE 15 22 988.7 - 24.0 Rain Mostly clear 5 - - - -
30/08:11am 12.4 SE 16 26 989.1 - 23.0 Rain Mostly clear 5 - - - -
30/08:00am 12.1 SE 16 24 989.4 - 22.4 - Mostly clear 5 - - - -
30/07:30am 12.1 SE 17 27 989.9 - 19.0 Rain Mostly clear 4 - - - -
30/07:20am 12.2 SE 14 22 990.0 - 18.2 Rain Mostly clear 4 - - - -
30/07:00am 12.3 SE 13 19 990.8 - 16.2 - Mostly clear 5 - - - -
30/06:30am 12.6 ESE 12 20 990.8 - 15.2 Rain Mostly clear 6 - - - -
30/06:00am 12.6 ESE 12 22 990.9 F 15.0 Rain Cloudy 7 - - - -
30/05:30am 12.5 ESE 11 17 990.9 - 14.4 - Partly cloudy 8 - - - -
30/05:14am 12.6 ESE 13 21 991.0 - 14.2 - Partly cloudy 8 - - - -
30/05:00am 12.1 ESE 10 22 991.2 - 13.8 - Mostly clear 10 - - - -
30/04:30am 12.3 E 10 20 991.1 - 12.8 Rain Mostly cloudy 10 - - - -
30/04:24am 12.6 E 13 20 991.1 - 12.8 Rain Mostly cloudy 10 - - - -
30/04:00am 13.0 ESE 13 21 990.5 - 12.8 - Partly cloudy 9 - - - -
30/03:43am 12.8 E 10 16 991.2 - 12.6 - Partly cloudy 8 - - - -
30/03:30am 12.7 E 11 18 991.2 - 12.6 Rain Mostly cloudy 6 - - - -
30/03:00am 12.8 E 13 22 991.4 F 11.0 Rain Mostly cloudy 6 - - - -
30/02:49am 12.9 E 10 17 991.8 - 10.6 - Partly cloudy 9 - - - -
30/02:31am 12.7 E 9 20 992.0 - 10.0 - Partly cloudy 5 - - - -
30/02:30am 12.7 E 8 14 992.0 - 9.8 - Partly cloudy 5 - - - -
30/02:00am 12.6 E 8 16 992.3 - 6.0 - Mostly cloudy 7 - - - -
30/01:41am 12.7 E 9 15 992.7 - 5.2 - Partly cloudy 3 - - - -
30/01:30am 12.7 E 10 17 992.9 - 5.0 - Partly cloudy 8 - - - -
30/01:14am 12.8 E 8 15 993.1 - 4.4 Rain Mostly cloudy 6 - - - -
30/01:00am 12.8 E 8 15 993.2 - 4.2 - Mostly clear 9 - - - -
30/12:30am 12.7 E 7 9 993.4 - 3.0 Rain Mostly clear 10 - - - -
30/12:00am 12.6 SSE 5 6 993.5 F 2.8 Rain Cloudy 22 - - - -
 
Date/Time
EST
Temp
°C
Wind Pressure Rain since
9am
mm
Weather Cloud Vis
km
Sea
Height
m
Swell
Dir  Spd
kts
Gust
kts
hPa Trend Height
m
Period
s
Dir
29/11:30pm 12.8 E 7 10 993.8 - 2.2 Rain Partly cloudy 10 - - - -
29/11:00pm 12.9 E 8 14 993.8 - 2.0 - Mostly clear 10 - - - -
29/10:30pm 12.8 ESE 10 15 993.8 - 2.0 Rain Mostly clear 10 - - - -
29/10:00pm 13.1 E 8 14 994.2 - 2.0 - Partly cloudy 10 - - - -
29/09:30pm 12.8 E 9 16 994.4 - 1.8 Rain Mostly clear 10 - - - -
29/09:00pm 12.7 E 11 17 994.3 F 1.8 Rain Cloudy 14 - - - -
29/08:30pm 12.8 E 12 18 994.2 - 1.8 Rain Partly cloudy 10 - - - -
29/08:00pm 12.4 E 12 20 994.3 - 1.6 - Partly cloudy 10 - - - -
29/07:30pm 12.6 E 12 19 994.1 - 1.2 Rain Mostly clear 7 - - - -
29/07:25pm 12.6 E 12 19 994.1 - 1.0 Rain Mostly clear 7 - - - -
29/07:00pm 12.6 E 10 18 994.3 - 0.8 - Mostly clear 10 - - - -
29/06:30pm 12.5 E 12 20 994.2 - 0.8 Rain Mostly clear 9 - - - -
29/06:00pm 13.3 ENE 11 18 994.7 R 0.2 Rain Cloudy 9 - - - -
29/05:30pm 13.4 ENE 13 25 994.4 - 0.0 Rain Mostly clear 9 - - - -
29/05:00pm 14.0 ENE 15 24 994.2 - 0.0 - Mostly clear 10 - - - -
29/04:31pm 14.3 ENE 15 25 993.9 - 0.0 Rain Mostly clear 10 - - - -
29/04:30pm 14.3 ENE 15 24 993.9 - 0.0 Rain Mostly clear 10 - - - -
29/04:04pm 14.5 ENE 17 28 993.7 - 0.0 Rain Mostly clear 10 - - - -
29/04:00pm 14.6 ENE 18 26 993.7 - 0.0 - Mostly clear 10 - - - -
29/03:30pm 14.6 ENE 19 30 993.7 - 0.0 Rain Mostly clear 10 - - - -
29/03:00pm 14.8 ENE 18 30 993.7 F 0.0 Rain Cloudy 12 - - - -
29/02:30pm 14.6 ENE 20 32 994.2 - 0.0 Rain Mostly clear 10 - - - -
29/02:00pm 14.5 ENE 20 33 994.4 - 0.0 - Mostly clear 9 - - - -
29/01:30pm 14.9 NE 21 32 994.3 - 0.0 Rain Mostly clear 10 - - - -
29/01:00pm 14.7 NE 22 33 994.4 - 0.0 - Mostly clear 10 - - - -
29/12:30pm 15.0 ENE 20 30 994.7 - 0.0 Rain Mostly clear 10 - - - -
29/12:00pm 15.5 NE 19 29 995.3 F 0.0 Rain Cloudy 15 - - - -
29/11:43am 15.3 NE 20 30 995.7 - 0.0 - Mostly clear 10 - - - -
29/11:30am 15.2 NE 20 28 995.9 - 0.0 Rain Mostly clear 10 - - - -
29/11:00am 14.9 NE 17 27 996.3 - 0.0 - Mostly clear 10 - - - -
29/10:30am 15.0 NE 16 27 996.5 - 0.0 Rain Mostly clear 8 - - - -
29/10:02am 15.1 NE 20 30 996.9 - 0.0 Rain Mostly clear 8 - - - -
29/10:00am 14.9 NE 21 30 997.0 - 0.0 - Mostly clear 8 - - - -
29/09:32am 14.9 NE 17 27 997.1 - 0.0 Rain Mostly clear 10 - - - -
29/09:30am 14.8 NE 17 25 997.2 - 0.0 Rain Mostly clear 10 - - - -
29/09:04am 15.4 NE 15 25 997.7 - 0.0 Rain Mostly clear 10 - - - -
29/09:00am 15.4 NE 13 18 997.7 F 0.0 Rain Cloudy 20 - - - -
29/08:33am 15.3 NE 15 26 998.0 - 0.0 Rain Mostly clear 10 - - - -
29/08:30am 15.3 NE 14 20 998.0 - 0.0 Rain Mostly clear 10 - - - -
29/08:00am 14.5 NE 15 23 998.2 - 0.0 - Mostly clear 10 - - - -
29/07:30am 14.3 NE 12 16 998.5 - 0.0 - Mostly cloudy 10 - - - -
29/07:00am 14.1 NE 11 15 998.6 - 0.0 - Mostly cloudy 10 - - - -
29/06:30am 13.6 NNE 8 13 999.1 - 0.0 - Mostly cloudy 10 - - - -
29/06:00am 12.7 NE 8 15 999.4 F 0.0 Haze Mostly cloudy 25 - - - -
29/05:30am 11.3 N 4 9 999.7 - 0.0 - Mostly cloudy 10 - - - -
29/05:00am 10.5 SW 2 5 1000.0 - 0.0 - Mostly cloudy 10 - - - -
29/04:30am 10.1 SSW 3 5 1000.3 - 0.0 - Mostly cloudy 10 - - - -
29/04:00am 9.1 W 3 5 1000.9 - 0.0 - Mostly cloudy 10 - - - -
29/03:30am 8.9 NNW 1 5 1001.2 - 0.0 - Mostly clear 10 - - - -
29/03:00am 9.8 NE 3 5 1001.7 F 0.0 Fine Mostly cloudy 35 - - - -
29/02:30am 10.2 N 5 8 1002.2 - 0.0 - Mostly clear 10 - - - -
29/02:00am 9.1 N 3 6 1002.9 - 0.0 - Mostly clear 10 - - - -
29/01:30am 8.9 N 6 6 1003.5 - 0.0 - Mostly clear 10 - - - -

Other Formats:

Comma delimited format used in spreadsheet applications
http://www.bom.gov.au/fwo/IDT60701/IDT60701.94975.axf

JavaScript Object Notation format (JSON) in row-major order
http://www.bom.gov.au/fwo/IDT60701/IDT60701.94975.json